Time;durP1;ratioP1;P1;durP2;ratioP2;P2;SDS_P1;SDS_P2;PMS_P1;PMS_P2;Temp;Humidity;BMP_temperature;BMP_pressure;BME280_temperature;BME280_humidity;BME280_pressure;Samples;Min_cycle;Max_cycle;Signal;HPM_P1;HPM_P2
2023/03/24 00:01:18;;;;;;;1.70;1.60;;;15.30;99.10;;;;;;5062787;28;20478;-83
2023/03/24 00:03:47;;;;;;;3.97;1.57;;;15.30;99.00;;;;;;5071174;28;21030;-81
2023/03/24 00:06:14;;;;;;;1.37;1.23;;;15.30;99.20;;;;;;5039044;28;20461;-81
2023/03/24 00:08:42;;;;;;;1.40;1.20;;;15.20;99.20;;;;;;5050281;28;20505;-82
2023/03/24 00:11:10;;;;;;;2.10;1.23;;;15.30;99.30;;;;;;5059321;28;20476;-81
2023/03/24 00:13:38;;;;;;;1.60;1.50;;;15.30;99.20;;;;;;5055139;28;20502;-80
2023/03/24 00:16:07;;;;;;;1.60;1.50;;;15.40;98.90;;;;;;5051570;28;20503;-83
2023/03/24 00:18:35;;;;;;;3.17;1.63;;;15.40;98.90;;;;;;5063993;28;20440;-80
2023/03/24 00:21:03;;;;;;;1.70;1.60;;;15.40;99.00;;;;;;5071778;28;22487;-80
2023/03/24 00:23:32;;;;;;;2.40;1.47;;;15.40;99.10;;;;;;5066436;28;20449;-82
2023/03/24 00:26:01;;;;;;;2.47;1.70;;;15.40;99.10;;;;;;5073123;28;20456;-80
2023/03/24 00:28:32;;;;;;;1.27;1.17;;;15.40;99.10;;;;;;5078454;28;20455;-82
2023/03/24 00:31:00;;;;;;;1.90;1.37;;;15.30;99.10;;;;;;5081076;28;20492;-83
2023/03/24 00:33:31;;;;;;;1.90;1.57;;;15.30;99.20;;;;;;5068000;28;20448;-84
2023/03/24 00:36:00;;;;;;;2.37;1.43;;;15.30;99.30;;;;;;5057110;28;20480;-84
2023/03/24 00:38:27;;;;;;;3.20;1.60;;;15.30;99.40;;;;;;5050815;28;20448;-83
2023/03/24 00:40:54;;;;;;;1.60;1.50;;;15.40;99.20;;;;;;5041971;28;20485;-81
2023/03/24 00:43:21;;;;;;;1.30;1.20;;;15.50;99.00;;;;;;5048238;28;20448;-82
2023/03/24 00:45:47;;;;;;;1.90;1.77;;;15.50;98.90;;;;;;5048935;28;20986;-82
2023/03/24 00:48:19;;;;;;;4.20;1.83;;;15.50;98.90;;;;;;5050311;28;20479;-83
2023/03/24 00:50:50;;;;;;;1.93;1.80;;;15.30;99.00;;;;;;5042122;28;20493;-81
2023/03/24 00:53:17;;;;;;;4.50;1.90;;;15.40;99.20;;;;;;5043996;28;20436;-84
2023/03/24 00:55:46;;;;;;;3.50;2.00;;;15.50;99.50;;;;;;5056001;28;20448;-84
2023/03/24 00:58:18;;;;;;;2.27;2.07;;;15.60;99.10;;;;;;5041168;28;20495;-83
2023/03/24 01:00:47;;;;;;;1.77;1.63;;;15.50;99.00;;;;;;5050867;28;20529;-83
2023/03/24 01:03:14;;;;;;;2.20;2.00;;;15.60;99.20;;;;;;5061809;28;20574;-83
2023/03/24 01:05:41;;;;;;;2.27;2.00;;;15.50;99.10;;;;;;5051528;28;20448;-84
2023/03/24 01:08:09;;;;;;;2.53;2.20;;;15.60;99.30;;;;;;5051323;28;20835;-83
2023/03/24 01:10:52;;;;;;;3.10;2.20;;;15.50;99.50;;;;;;5049721;28;20457;-83
2023/03/24 01:13:20;;;;;;;2.43;2.20;;;15.50;99.70;;;;;;5046079;28;20915;-82
2023/03/24 01:15:47;;;;;;;3.53;2.20;;;15.60;99.30;;;;;;5049711;28;20448;-82
2023/03/24 01:18:15;;;;;;;2.80;1.90;;;15.60;99.10;;;;;;5049786;28;20893;-82
2023/03/24 01:20:48;;;;;;;2.23;2.03;;;15.60;99.10;;;;;;5039006;28;20465;-82
2023/03/24 01:23:20;;;;;;;3.43;2.20;;;15.60;99.10;;;;;;5048677;28;20532;-82
2023/03/24 01:25:47;;;;;;;2.43;1.83;;;15.50;99.10;;;;;;5045347;28;20463;-83
2023/03/24 01:28:17;;;;;;;1.63;1.53;;;15.40;99.50;;;;;;5056610;28;20465;-83
2023/03/24 01:30:44;;;;;;;1.60;1.50;;;15.40;99.70;;;;;;5055007;28;21090;-84
2023/03/24 01:33:11;;;;;;;2.03;1.93;;;15.40;99.70;;;;;;5052006;28;20877;-83
2023/03/24 01:35:38;;;;;;;1.60;1.50;;;15.40;99.70;;;;;;5051047;28;20464;-83
2023/03/24 01:38:09;;;;;;;5.93;1.90;;;15.40;99.70;;;;;;5054938;28;20545;-83
2023/03/24 01:40:38;;;;;;;1.97;1.83;;;15.30;99.90;;;;;;5045644;28;20481;-82
2023/03/24 01:43:07;;;;;;;2.97;1.73;;;15.20;99.90;;;;;;5048882;28;20999;-83
2023/03/24 01:45:50;;;;;;;2.27;2.07;;;15.40;99.90;;;;;;5052074;28;20805;-81
2023/03/24 01:48:23;;;;;;;2.03;1.70;;;15.40;99.90;;;;;;5045839;28;20447;-83
2023/03/24 01:50:56;;;;;;;2.53;2.33;;;15.40;99.90;;;;;;5046055;28;20496;-83
2023/03/24 01:53:24;;;;;;;2.50;2.10;;;15.40;99.90;;;;;;5045609;28;20499;-83
2023/03/24 01:55:51;;;;;;;4.20;2.17;;;15.40;99.90;;;;;;5047867;28;20448;-83
2023/03/24 01:58:18;;;;;;;3.80;2.20;;;15.40;99.90;;;;;;5040491;28;20928;-83
2023/03/24 02:00:45;;;;;;;3.00;2.70;;;15.40;99.90;;;;;;5045556;28;20507;-82
2023/03/24 02:03:17;;;;;;;2.17;1.97;;;15.40;99.90;;;;;;5044051;28;20472;-83
2023/03/24 02:05:46;;;;;;;2.47;2.27;;;15.50;99.90;;;;;;5071829;28;20468;-82
2023/03/24 02:08:40;;;;;;;3.03;2.33;;;15.40;99.90;;;;;;5053080;28;20460;-81
2023/03/24 02:11:07;;;;;;;1.80;1.70;;;15.50;99.90;;;;;;5054541;28;20898;-81
2023/03/24 02:13:34;;;;;;;2.50;2.00;;;15.50;99.90;;;;;;5050370;28;21228;-83
2023/03/24 02:16:36;;;;;;;2.50;2.20;;;15.60;99.90;;;;;;5060478;28;20467;-83
2023/03/24 02:19:36;;;;;;;2.53;2.33;;;15.50;99.90;;;;;;5045937;28;20471;-82
2023/03/24 02:22:22;;;;;;;2.40;2.30;;;15.50;99.90;;;;;;5071170;28;20465;-83
2023/03/24 02:24:49;;;;;;;2.60;2.30;;;15.60;99.90;;;;;;5076307;28;20481;-83
2023/03/24 02:27:34;;;;;;;2.30;2.10;;;15.60;99.90;;;;;;5078058;28;20437;-82
2023/03/24 02:30:25;;;;;;;2.87;2.13;;;15.50;99.90;;;;;;5072300;28;20464;-83
2023/03/24 02:33:29;;;;;;;2.63;2.23;;;15.70;99.90;;;;;;5065049;28;20464;-82
2023/03/24 02:36:15;;;;;;;2.67;2.23;;;15.70;99.90;;;;;;5073058;28;20519;-84
2023/03/24 02:39:16;;;;;;;2.13;1.93;;;15.70;99.90;;;;;;5066401;28;20445;-83
2023/03/24 02:42:01;;;;;;;4.87;2.30;;;15.60;99.90;;;;;;5070520;28;20536;-84
2023/03/24 02:44:49;;;;;;;3.17;2.97;;;15.60;99.90;;;;;;5068753;28;20462;-83
2023/03/24 02:47:33;;;;;;;2.40;2.20;;;15.60;99.90;;;;;;5065738;28;20451;-84
2023/03/24 02:50:05;;;;;;;1.93;1.80;;;15.60;99.90;;;;;;5049793;28;20472;-83
2023/03/24 02:52:47;;;;;;;4.00;2.70;;;15.60;99.90;;;;;;5041889;28;20465;-83
2023/03/24 02:55:38;;;;;;;3.23;2.97;;;15.70;99.90;;;;;;5044850;28;20469;-83
2023/03/24 02:58:10;;;;;;;2.13;2.03;;;15.70;99.90;;;;;;5045984;28;20461;-82
2023/03/24 03:00:51;;;;;;;5.03;3.30;;;15.70;99.90;;;;;;5048501;28;20475;-83
2023/03/24 03:03:37;;;;;;;2.90;2.60;;;15.70;99.90;;;;;;5047825;28;20526;-84
2023/03/24 03:06:32;;;;;;;4.93;2.57;;;15.70;99.90;;;;;;5040750;28;20452;-83
2023/03/24 03:09:03;;;;;;;2.40;2.20;;;15.70;99.90;;;;;;5047891;28;20465;-83
2023/03/24 03:11:30;;;;;;;2.63;2.43;;;15.60;99.90;;;;;;5067379;28;20466;-84
2023/03/24 03:14:10;;;;;;;2.40;2.30;;;15.60;99.90;;;;;;5061792;28;20441;-83
2023/03/24 03:16:52;;;;;;;4.87;2.63;;;15.80;99.90;;;;;;5050417;28;20448;-82
2023/03/24 03:19:32;;;;;;;2.37;2.27;;;15.80;99.80;;;;;;5041670;28;20469;-81
2023/03/24 03:22:01;;;;;;;2.40;2.20;;;15.70;99.80;;;;;;5037702;28;20534;-83
2023/03/24 03:24:36;;;;;;;4.30;2.70;;;15.80;99.90;;;;;;5048535;28;20486;-82
2023/03/24 03:27:08;;;;;;;3.40;2.40;;;15.80;99.90;;;;;;5046434;28;20970;-82
2023/03/24 03:29:42;;;;;;;2.23;2.03;;;15.70;99.90;;;;;;5060578;28;21297;-82
2023/03/24 03:32:17;;;;;;;2.50;2.30;;;15.70;99.90;;;;;;5051938;28;20496;-83
2023/03/24 03:34:53;;;;;;;2.30;2.07;;;15.70;99.90;;;;;;5050058;28;20944;-84
2023/03/24 03:37:26;;;;;;;2.87;2.53;;;15.70;99.90;;;;;;5053275;28;20946;-82
2023/03/24 03:40:08;;;;;;;2.57;2.37;;;15.70;99.90;;;;;;5041848;28;21058;-81
2023/03/24 03:42:35;;;;;;;2.70;2.50;;;15.70;99.90;;;;;;5049401;28;20861;-81
2023/03/24 03:45:03;;;;;;;2.30;2.20;;;15.70;99.90;;;;;;5034533;28;20480;-83
2023/03/24 03:47:30;;;;;;;2.83;2.50;;;15.60;99.90;;;;;;5049321;28;20451;-82
2023/03/24 03:49:58;;;;;;;2.80;2.40;;;15.60;99.90;;;;;;5053029;28;20449;-83
2023/03/24 03:52:24;;;;;;;2.40;2.20;;;15.70;99.90;;;;;;5052948;28;20672;-82
2023/03/24 03:54:52;;;;;;;2.30;2.20;;;15.70;99.90;;;;;;5056513;28;20472;-82
2023/03/24 03:57:19;;;;;;;3.30;3.00;;;15.70;99.90;;;;;;5051448;28;20529;-83
2023/03/24 03:59:46;;;;;;;2.90;2.70;;;15.70;99.90;;;;;;5043778;28;20446;-82
2023/03/24 04:02:25;;;;;;;3.40;3.10;;;15.70;99.90;;;;;;5045853;28;20477;-82
2023/03/24 04:05:13;;;;;;;2.57;2.37;;;15.70;99.90;;;;;;5049558;28;20545;-83
2023/03/24 04:07:52;;;;;;;2.30;2.10;;;15.70;99.90;;;;;;5057597;28;20437;-84
2023/03/24 04:10:47;;;;;;;2.53;2.33;;;15.80;99.90;;;;;;5071140;28;20461;-86
2023/03/24 04:13:40;;;;;;;3.87;2.37;;;15.80;99.90;;;;;;5068256;28;20475;-83
2023/03/24 04:16:22;;;;;;;2.20;2.00;;;15.80;99.90;;;;;;5059449;28;20480;-84
2023/03/24 04:19:09;;;;;;;2.43;2.23;;;15.80;99.90;;;;;;5064109;28;20456;-84
2023/03/24 04:22:05;;;;;;;2.43;2.23;;;15.80;99.90;;;;;;5046837;28;20460;-83
2023/03/24 04:24:53;;;;;;;2.50;2.30;;;15.70;99.90;;;;;;5042573;28;20456;-82
2023/03/24 04:27:55;;;;;;;2.40;2.20;;;15.70;99.90;;;;;;5055429;28;20453;-82
2023/03/24 04:30:54;;;;;;;2.17;2.07;;;15.80;99.90;;;;;;5046761;28;20498;-83
2023/03/24 04:34:02;;;;;;;2.30;2.10;;;15.80;99.90;;;;;;5045011;28;20506;-83
2023/03/24 04:36:41;;;;;;;1.80;1.70;;;15.90;99.90;;;;;;5043432;28;20832;-83
2023/03/24 04:39:15;;;;;;;2.00;1.90;;;15.70;99.90;;;;;;5043223;28;20457;-82
2023/03/24 04:41:46;;;;;;;1.87;1.77;;;15.70;99.90;;;;;;5048329;28;20486;-82
2023/03/24 04:44:16;;;;;;;3.40;1.90;;;15.70;99.90;;;;;;5049079;28;20468;-83
2023/03/24 04:46:43;;;;;;;2.33;1.90;;;15.60;99.90;;;;;;5049530;28;21202;-83
2023/03/24 04:49:10;;;;;;;1.53;1.43;;;15.50;99.90;;;;;;5041722;28;20491;-84
2023/03/24 04:51:37;;;;;;;1.70;1.60;;;15.40;99.90;;;;;;5035796;28;20473;-83
2023/03/24 04:54:04;;;;;;;1.83;1.50;;;15.40;99.90;;;;;;5040215;28;20514;-83
2023/03/24 04:56:47;;;;;;;1.80;1.70;;;15.30;99.90;;;;;;5047480;28;20475;-82
2023/03/24 04:59:14;;;;;;;2.43;1.90;;;15.20;99.90;;;;;;5047100;28;21030;-83
2023/03/24 05:01:48;;;;;;;1.30;1.20;;;15.20;99.90;;;;;;5047805;28;20471;-84
2023/03/24 05:04:17;;;;;;;1.23;1.10;;;15.00;99.90;;;;;;5052243;28;20897;-83
2023/03/24 05:06:45;;;;;;;2.07;1.83;;;14.80;99.90;;;;;;5051737;28;20471;-82
2023/03/24 05:09:13;;;;;;;1.03;0.93;;;14.60;99.90;;;;;;5058643;28;20590;-83
2023/03/24 05:11:40;;;;;;;0.87;0.87;;;14.50;99.90;;;;;;5055570;28;20516;-84
2023/03/24 05:14:07;;;;;;;1.00;0.90;;;14.40;99.90;;;;;;5050318;28;20508;-83
2023/03/24 05:16:34;;;;;;;1.97;1.50;;;14.40;99.90;;;;;;5047599;28;20484;-83
2023/03/24 05:19:01;;;;;;;5.60;1.40;;;14.40;99.90;;;;;;5044753;28;20463;-83
2023/03/24 05:21:28;;;;;;;1.00;0.93;;;14.40;99.90;;;;;;5035638;28;20483;-84
2023/03/24 05:23:55;;;;;;;2.70;1.40;;;14.50;99.90;;;;;;5046801;28;20519;-83
2023/03/24 05:26:22;;;;;;;3.60;1.67;;;14.40;99.90;;;;;;5047178;28;21015;-83
2023/03/24 05:28:49;;;;;;;2.83;1.20;;;14.30;99.90;;;;;;5047586;28;20449;-82
2023/03/24 05:31:15;;;;;;;2.40;1.77;;;14.30;99.90;;;;;;5058833;28;20488;-83
2023/03/24 05:33:42;;;;;;;1.73;1.63;;;14.20;99.90;;;;;;5044396;28;20539;-83
2023/03/24 05:36:09;;;;;;;1.97;1.63;;;14.20;99.90;;;;;;5042380;28;20452;-82
2023/03/24 05:38:36;;;;;;;1.70;1.50;;;14.10;99.90;;;;;;5043071;28;20453;-83
2023/03/24 05:41:04;;;;;;;2.83;2.10;;;14.10;99.90;;;;;;5044070;28;20581;-83
2023/03/24 05:43:31;;;;;;;1.70;1.37;;;14.10;99.90;;;;;;5043960;28;20515;-83
2023/03/24 05:46:01;;;;;;;2.17;1.43;;;14.00;99.90;;;;;;5036688;28;20460;-83
2023/03/24 05:48:27;;;;;;;2.60;1.70;;;14.00;99.90;;;;;;5047341;28;20464;-83
2023/03/24 05:50:54;;;;;;;3.40;1.50;;;14.00;99.90;;;;;;5046385;28;20477;-83
2023/03/24 05:53:21;;;;;;;1.50;1.30;;;14.00;99.90;;;;;;5053119;28;20468;-83
2023/03/24 05:55:47;;;;;;;3.60;2.00;;;14.00;99.90;;;;;;5048637;28;20448;-83
2023/03/24 05:58:14;;;;;;;2.13;1.90;;;14.00;99.90;;;;;;5049751;28;20461;-83
2023/03/24 06:00:43;;;;;;;1.50;1.40;;;14.00;99.90;;;;;;5039185;28;20475;-84
2023/03/24 06:03:10;;;;;;;2.67;2.13;;;14.10;99.90;;;;;;5046884;28;21038;-84
2023/03/24 06:05:37;;;;;;;2.27;2.00;;;14.00;99.90;;;;;;5053121;28;21113;-83
2023/03/24 06:08:03;;;;;;;1.33;1.23;;;14.10;99.90;;;;;;5053588;28;20460;-84
2023/03/24 06:10:30;;;;;;;3.93;1.80;;;14.30;99.90;;;;;;5056373;28;20979;-84
2023/03/24 06:12:57;;;;;;;2.50;1.70;;;14.10;99.90;;;;;;5055569;28;20441;-84
2023/03/24 06:15:26;;;;;;;2.10;1.17;;;14.00;99.90;;;;;;5057558;28;20479;-83
2023/03/24 06:17:56;;;;;;;1.33;1.13;;;13.90;99.50;;;;;;5049232;28;20495;-84
2023/03/24 06:20:22;;;;;;;2.70;1.40;;;13.80;98.80;;;;;;5061970;28;21022;-83
2023/03/24 06:22:49;;;;;;;2.00;1.57;;;13.70;98.10;;;;;;5068458;28;20504;-82
2023/03/24 06:25:19;;;;;;;3.77;1.50;;;13.60;97.30;;;;;;5069250;28;20468;-82
2023/03/24 06:27:45;;;;;;;2.73;1.43;;;13.60;97.20;;;;;;5062857;28;20448;-85
2023/03/24 06:30:16;;;;;;;3.77;1.50;;;13.60;97.50;;;;;;5066257;28;20523;-84
2023/03/24 06:32:46;;;;;;;2.60;1.87;;;13.60;97.40;;;;;;5068494;28;20453;-83
2023/03/24 06:35:14;;;;;;;3.73;1.33;;;13.60;97.30;;;;;;5074815;28;20448;-84
2023/03/24 06:37:41;;;;;;;3.30;1.90;;;13.70;97.50;;;;;;5074041;28;20507;-85
2023/03/24 06:40:13;;;;;;;2.57;1.33;;;13.80;97.60;;;;;;5066543;28;20460;-82
2023/03/24 06:42:40;;;;;;;5.30;2.30;;;13.90;97.20;;;;;;5067810;28;20480;-83
2023/03/24 06:45:07;;;;;;;3.00;1.77;;;13.90;96.60;;;;;;5069857;28;20515;-83
2023/03/24 06:47:34;;;;;;;2.63;1.47;;;13.80;96.80;;;;;;5063630;28;20475;-84
2023/03/24 06:50:02;;;;;;;4.17;1.60;;;13.70;97.20;;;;;;5070046;28;20626;-84
2023/03/24 06:52:28;;;;;;;5.70;2.33;;;13.60;97.40;;;;;;5074971;28;20437;-84
2023/03/24 06:54:57;;;;;;;5.27;2.40;;;13.50;97.60;;;;;;5067177;28;20455;-84
2023/03/24 06:57:23;;;;;;;3.00;2.03;;;13.40;97.60;;;;;;5057573;28;20461;-84
2023/03/24 06:59:50;;;;;;;3.30;2.10;;;13.40;97.50;;;;;;5063665;28;20455;-84
2023/03/24 07:02:16;;;;;;;7.50;2.47;;;13.30;97.50;;;;;;5067392;28;20521;-84
2023/03/24 07:04:44;;;;;;;3.00;2.00;;;13.30;97.50;;;;;;5057801;28;20502;-84
2023/03/24 07:07:11;;;;;;;4.50;2.33;;;13.30;97.60;;;;;;5065780;28;20479;-84
2023/03/24 07:09:58;;;;;;;2.87;1.70;;;13.20;98.00;;;;;;5063277;28;20472;-83
2023/03/24 07:12:25;;;;;;;4.80;2.00;;;13.30;98.00;;;;;;5060863;28;20444;-83
2023/03/24 07:14:52;;;;;;;2.70;1.70;;;13.20;98.00;;;;;;5058915;28;20544;-83
2023/03/24 07:17:18;;;;;;;3.30;1.97;;;13.20;98.10;;;;;;5060010;28;20455;-82
2023/03/24 07:19:45;;;;;;;6.33;2.33;;;13.20;98.00;;;;;;5067347;28;20448;-83
2023/03/24 07:22:12;;;;;;;4.07;1.97;;;13.20;98.10;;;;;;5066657;28;20458;-84
2023/03/24 07:24:39;;;;;;;2.50;1.50;;;13.10;98.30;;;;;;5066576;28;20484;-82
2023/03/24 07:27:06;;;;;;;4.07;1.40;;;13.10;98.50;;;;;;5073210;28;20428;-85
2023/03/24 07:29:33;;;;;;;7.20;2.10;;;13.10;98.60;;;;;;5081725;28;20463;-84
2023/03/24 07:32:00;;;;;;;3.60;1.90;;;13.20;98.90;;;;;;5077052;28;20452;-83
2023/03/24 07:34:27;;;;;;;3.00;1.73;;;13.20;98.60;;;;;;5069817;28;20457;-82
2023/03/24 07:36:55;;;;;;;4.13;1.87;;;13.20;98.60;;;;;;5085467;28;20425;-81
2023/03/24 07:39:21;;;;;;;2.47;1.50;;;13.20;98.40;;;;;;5074702;28;20463;-82
2023/03/24 07:41:48;;;;;;;3.20;2.23;;;13.20;98.50;;;;;;5072305;28;20468;-81
2023/03/24 07:44:15;;;;;;;2.93;1.77;;;13.20;98.40;;;;;;5072434;28;20468;-83
2023/03/24 07:46:42;;;;;;;6.17;1.90;;;13.20;98.30;;;;;;5068522;28;20450;-81
2023/03/24 07:49:09;;;;;;;4.00;1.90;;;13.20;98.50;;;;;;5073048;28;20492;-81
2023/03/24 07:51:44;;;;;;;6.33;1.97;;;13.10;98.60;;;;;;5068058;28;20466;-83
2023/03/24 07:54:11;;;;;;;3.57;2.40;;;13.30;98.80;;;;;;5062832;28;20456;-82
2023/03/24 07:56:38;;;;;;;4.07;2.40;;;13.50;97.90;;;;;;5068698;28;20452;-84
2023/03/24 07:59:05;;;;;;;3.27;2.00;;;13.40;97.90;;;;;;5047554;28;20514;-84
2023/03/24 08:01:35;;;;;;;5.07;2.00;;;13.40;97.90;;;;;;5034087;28;20469;-85
2023/03/24 08:04:03;;;;;;;5.10;2.10;;;13.50;97.80;;;;;;5051820;28;20480;-85
2023/03/24 08:06:30;;;;;;;3.20;2.40;;;13.50;97.50;;;;;;5058608;28;20488;-84
2023/03/24 08:08:57;;;;;;;6.83;2.40;;;13.50;97.50;;;;;;5051221;28;20449;-84
2023/03/24 08:11:23;;;;;;;8.40;3.20;;;13.60;97.40;;;;;;5053210;28;20839;-84
2023/03/24 08:13:50;;;;;;;6.40;2.53;;;13.70;97.40;;;;;;5060579;28;20461;-85
2023/03/24 08:16:17;;;;;;;6.87;2.43;;;13.80;97.00;;;;;;5058926;28;20504;-84
2023/03/24 08:18:45;;;;;;;7.47;3.13;;;13.90;96.80;;;;;;5058976;28;20460;-83
2023/03/24 08:21:11;;;;;;;6.73;2.80;;;14.30;96.60;;;;;;5060922;28;20474;-84
2023/03/24 08:23:38;;;;;;;4.70;2.30;;;14.60;95.70;;;;;;5057673;28;20476;-85
2023/03/24 08:26:06;;;;;;;6.83;2.63;;;14.60;94.90;;;;;;5056713;28;20452;-84
2023/03/24 08:28:32;;;;;;;6.40;3.27;;;14.80;94.60;;;;;;5052661;28;20504;-84
2023/03/24 08:30:59;;;;;;;4.17;2.10;;;15.20;93.50;;;;;;5056316;28;20530;-84
2023/03/24 08:33:26;;;;;;;9.37;3.13;;;15.10;93.40;;;;;;5062157;28;20490;-85
2023/03/24 08:35:56;;;;;;;5.23;2.50;;;15.50;92.70;;;;;;5064535;28;20458;-84
2023/03/24 08:38:29;;;;;;;6.37;2.20;;;15.40;92.40;;;;;;5055182;28;20458;-84
2023/03/24 08:41:05;;;;;;;9.57;2.70;;;15.30;92.30;;;;;;5065185;28;20475;-84
2023/03/24 08:43:34;;;;;;;4.33;2.97;;;15.30;92.10;;;;;;5060843;28;20506;-85
2023/03/24 08:46:01;;;;;;;5.83;2.80;;;15.10;91.80;;;;;;5067291;28;20460;-84
2023/03/24 08:48:29;;;;;;;6.60;2.20;;;15.10;92.20;;;;;;5058890;28;20464;-82
2023/03/24 08:50:56;;;;;;;7.53;2.40;;;15.00;91.70;;;;;;5058750;28;20524;-85
2023/03/24 08:53:23;;;;;;;5.83;2.50;;;14.90;92.00;;;;;;5065254;28;20452;-86
2023/03/24 08:55:50;;;;;;;2.83;2.00;;;14.90;92.30;;;;;;5065259;28;20442;-85
2023/03/24 08:58:19;;;;;;;6.90;2.60;;;15.00;92.20;;;;;;5057708;28;20456;-84
2023/03/24 09:00:47;;;;;;;4.20;2.30;;;15.20;92.00;;;;;;5062186;28;20475;-84
2023/03/24 09:03:17;;;;;;;8.07;2.40;;;15.20;91.60;;;;;;5059755;28;20947;-83
2023/03/24 09:05:45;;;;;;;7.03;2.83;;;15.30;91.50;;;;;;5045137;28;20453;-84
2023/03/24 09:08:13;;;;;;;8.50;2.77;;;15.40;91.30;;;;;;5050702;28;20452;-84
2023/03/24 09:10:41;;;;;;;6.63;2.13;;;15.40;91.30;;;;;;5043831;28;20473;-83
2023/03/24 09:13:08;;;;;;;8.80;2.20;;;15.50;91.20;;;;;;5051357;28;20465;-85
2023/03/24 09:15:35;;;;;;;7.27;2.13;;;15.70;91.10;;;;;;5077528;28;20454;-84
2023/03/24 09:18:02;;;;;;;4.20;2.70;;;15.70;90.80;;;;;;5053131;28;20505;-83
2023/03/24 09:20:29;;;;;;;3.77;1.97;;;15.50;90.70;;;;;;5059617;28;20471;-82
2023/03/24 09:22:55;;;;;;;7.37;2.50;;;16.00;90.30;;;;;;5057417;28;20480;-83
2023/03/24 09:25:22;;;;;;;5.40;2.33;;;15.70;90.30;;;;;;5054236;28;20508;-83
2023/03/24 09:27:49;;;;;;;4.83;3.27;;;15.60;90.20;;;;;;5062630;28;20481;-82
2023/03/24 09:30:17;;;;;;;4.17;2.27;;;15.30;90.30;;;;;;5054246;28;20476;-83
2023/03/24 09:32:44;;;;;;;6.67;2.10;;;15.50;90.40;;;;;;5051236;28;20455;-84
2023/03/24 09:35:12;;;;;;;6.20;2.10;;;15.70;90.00;;;;;;5049869;28;20559;-83
2023/03/24 09:37:41;;;;;;;7.90;3.20;;;15.50;90.10;;;;;;5051725;28;20467;-84
2023/03/24 09:40:14;;;;;;;5.33;1.90;;;15.40;90.10;;;;;;5054449;28;20514;-84
2023/03/24 09:42:41;;;;;;;8.73;2.50;;;15.40;90.30;;;;;;5059327;28;20505;-82
2023/03/24 09:45:20;;;;;;;5.93;2.23;;;15.30;90.30;;;;;;5047952;28;20480;-84
2023/03/24 09:48:01;;;;;;;6.10;2.27;;;15.70;90.20;;;;;;5050287;28;20459;-82
2023/03/24 09:50:42;;;;;;;4.70;2.40;;;16.00;88.30;;;;;;5045357;28;20487;-83
2023/03/24 09:53:33;;;;;;;6.63;2.40;;;15.80;88.10;;;;;;5063377;28;20464;-83
2023/03/24 09:56:10;;;;;;;7.47;2.97;;;15.70;88.00;;;;;;5049364;28;20513;-85
2023/03/24 09:58:40;;;;;;;3.00;2.20;;;16.10;88.00;;;;;;5040877;28;20441;-84
2023/03/24 10:01:13;;;;;;;4.07;1.50;;;16.70;84.50;;;;;;5043709;28;20480;-84
2023/03/24 10:03:41;;;;;;;2.83;1.97;;;17.40;82.00;;;;;;5048586;28;20505;-85
2023/03/24 10:06:26;;;;;;;3.77;1.60;;;18.50;77.60;;;;;;5042844;28;20464;-83
2023/03/24 10:09:08;;;;;;;4.47;1.60;;;19.70;71.00;;;;;;5056799;28;20448;-83
2023/03/24 10:11:46;;;;;;;3.20;1.90;;;21.20;64.60;;;;;;5054791;28;20467;-84
2023/03/24 10:14:38;;;;;;;5.60;1.70;;;22.00;60.10;;;;;;5055414;28;20475;-83
2023/03/24 10:17:28;;;;;;;3.47;1.87;;;21.60;59.10;;;;;;5054028;28;20458;-82
2023/03/24 10:20:08;;;;;;;3.77;2.03;;;20.50;60.30;;;;;;5048578;28;20875;-81
2023/03/24 10:22:43;;;;;;;2.30;1.47;;;19.30;63.70;;;;;;5051986;28;20499;-84
2023/03/24 10:25:50;;;;;;;8.03;2.10;;;18.50;66.60;;;;;;5050627;28;20907;-84
2023/03/24 10:28:25;;;;;;;11.70;4.13;;;17.90;69.50;;;;;;5061294;28;20447;-85
2023/03/24 10:30:56;;;;;;;9.03;2.03;;;17.50;70.60;;;;;;5048027;28;20525;-82
2023/03/24 10:33:23;;;;;;;6.63;2.60;;;17.30;72.30;;;;;;5040455;28;20956;-84
2023/03/24 10:35:55;;;;;;;5.03;2.40;;;17.00;72.80;;;;;;5051042;28;20453;-84
2023/03/24 10:38:23;;;;;;;9.43;2.80;;;16.80;74.10;;;;;;5053615;28;21452;-84
2023/03/24 10:40:50;;;;;;;6.03;4.20;;;16.70;75.10;;;;;;5046257;28;20533;-84
2023/03/24 10:43:18;;;;;;;7.97;3.47;;;16.60;76.20;;;;;;5051503;28;20450;-83
2023/03/24 10:45:48;;;;;;;9.27;6.30;;;16.60;76.40;;;;;;5054198;28;20483;-84
2023/03/24 10:48:34;;;;;;;6.43;2.87;;;16.50;77.20;;;;;;5055665;28;20513;-85
2023/03/24 10:51:01;;;;;;;4.37;1.57;;;16.40;77.50;;;;;;5054156;28;20468;-84
2023/03/24 10:53:28;;;;;;;2.60;1.67;;;16.30;77.10;;;;;;5046405;28;20449;-86
2023/03/24 10:55:54;;;;;;;4.23;2.60;;;16.00;77.60;;;;;;5048980;28;20453;-84
2023/03/24 10:58:39;;;;;;;5.20;1.93;;;15.90;78.00;;;;;;5043667;28;20444;-83
2023/03/24 11:01:21;;;;;;;10.20;2.67;;;15.80;78.60;;;;;;5046391;28;20472;-83
2023/03/24 11:03:49;;;;;;;2.43;1.80;;;15.90;78.80;;;;;;5049047;28;20496;-82
2023/03/24 11:06:20;;;;;;;7.13;2.10;;;16.00;79.10;;;;;;5054142;28;20628;-82
2023/03/24 11:09:05;;;;;;;6.77;1.90;;;15.90;78.90;;;;;;5055072;28;20462;-85
2023/03/24 11:11:33;;;;;;;6.17;1.77;;;15.90;79.10;;;;;;5047441;28;20488;-83
2023/03/24 11:14:02;;;;;;;3.67;2.00;;;15.80;79.10;;;;;;5050090;28;20455;-85
2023/03/24 11:16:37;;;;;;;3.87;1.87;;;15.80;78.60;;;;;;5050697;28;20438;-84
2023/03/24 11:19:16;;;;;;;5.80;2.30;;;15.70;78.70;;;;;;5050661;28;20448;-84
2023/03/24 11:21:45;;;;;;;3.13;1.90;;;15.70;78.90;;;;;;5059005;28;20542;-84
2023/03/24 11:24:15;;;;;;;5.90;2.37;;;15.90;78.40;;;;;;5057738;28;20484;-84
2023/03/24 11:26:55;;;;;;;2.17;1.50;;;16.20;77.60;;;;;;5051231;28;20445;-84
2023/03/24 11:29:26;;;;;;;2.50;1.70;;;16.60;76.50;;;;;;5042796;28;20456;-84
2023/03/24 11:31:57;;;;;;;3.17;1.47;;;16.90;75.20;;;;;;5051379;28;20456;-84
2023/03/24 11:34:37;;;;;;;4.00;3.60;;;17.30;74.10;;;;;;5072891;28;21224;-83
2023/03/24 11:37:26;;;;;;;6.30;1.80;;;17.30;72.10;;;;;;5049172;28;20494;-84
2023/03/24 11:40:11;;;;;;;4.10;1.40;;;17.30;71.30;;;;;;5040515;28;20461;-83
2023/03/24 11:42:44;;;;;;;4.53;1.13;;;17.30;71.20;;;;;;5048301;28;20963;-82
2023/03/24 11:45:39;;;;;;;4.00;1.37;;;17.90;70.20;;;;;;5045559;28;20478;-83
2023/03/24 11:48:34;;;;;;;2.97;1.20;;;18.20;68.50;;;;;;5045500;28;20459;-82
2023/03/24 11:51:02;;;;;;;5.30;1.43;;;18.50;66.40;;;;;;5047043;28;20476;-84
2023/03/24 11:53:48;;;;;;;4.57;1.57;;;18.40;66.40;;;;;;5035584;28;20863;-82
2023/03/24 11:56:36;;;;;;;4.63;1.27;;;18.00;67.40;;;;;;5020642;28;20480;-85
2023/03/24 11:59:28;;;;;;;3.03;1.67;;;17.90;69.40;;;;;;5031168;28;20456;-82
2023/03/24 12:02:17;;;;;;;2.53;1.33;;;18.70;67.50;;;;;;5033300;28;20468;-82
2023/03/24 12:04:53;;;;;;;3.90;1.60;;;18.80;66.30;;;;;;5041464;28;20567;-84
2023/03/24 12:07:55;;;;;;;2.20;1.33;;;18.70;65.80;;;;;;5042566;28;20440;-83
2023/03/24 12:10:49;;;;;;;2.37;1.20;;;18.80;65.00;;;;;;5036450;28;20536;-82
2023/03/24 12:13:31;;;;;;;1.83;1.00;;;19.10;62.30;;;;;;5036340;28;20461;-84
2023/03/24 12:16:24;;;;;;;3.20;1.33;;;18.50;62.60;;;;;;5029531;28;20471;-83
2023/03/24 12:19:20;;;;;;;2.27;1.33;;;18.20;63.20;;;;;;5028159;28;20479;-82
2023/03/24 12:22:18;;;;;;;4.00;1.27;;;18.40;64.00;;;;;;5034525;28;20500;-82
2023/03/24 12:25:07;;;;;;;3.77;0.97;;;18.70;63.00;;;;;;5031318;28;20484;-82
2023/03/24 12:28:08;;;;;;;2.07;1.10;;;19.80;59.90;;;;;;5038994;28;20484;-83
2023/03/24 12:30:57;;;;;;;5.07;2.10;;;19.60;59.60;;;;;;5011717;28;20551;-84
2023/03/24 12:33:52;;;;;;;4.20;1.33;;;19.90;59.30;;;;;;5043273;28;20842;-82
2023/03/24 12:36:37;;;;;;;2.80;1.13;;;20.10;58.40;;;;;;5047795;28;20432;-83
2023/03/24 12:39:21;;;;;;;2.87;1.43;;;20.20;58.40;;;;;;5043924;28;20445;-83
2023/03/24 12:41:57;;;;;;;3.07;1.43;;;21.00;57.80;;;;;;5058220;28;20533;-82
2023/03/24 12:44:44;;;;;;;2.47;1.30;;;20.70;55.60;;;;;;5064697;28;20446;-84
2023/03/24 12:47:20;;;;;;;3.03;1.47;;;20.30;55.80;;;;;;5063504;28;20766;-83
2023/03/24 12:50:13;;;;;;;3.90;0.90;;;20.50;55.80;;;;;;5060725;28;21062;-83
2023/03/24 12:52:58;;;;;;;3.47;1.60;;;21.50;55.20;;;;;;5052415;28;20457;-84
2023/03/24 12:55:44;;;;;;;5.80;1.23;;;21.60;54.30;;;;;;5053312;28;20444;-82
2023/03/24 12:58:37;;;;;;;2.23;0.80;;;21.30;54.30;;;;;;5054708;28;20451;-82
2023/03/24 13:01:09;;;;;;;3.17;1.00;;;20.70;54.70;;;;;;5049674;28;20476;-82
2023/03/24 13:03:54;;;;;;;2.40;1.10;;;20.30;54.70;;;;;;5054933;28;20440;-81
2023/03/24 13:06:34;;;;;;;2.30;1.03;;;20.40;55.50;;;;;;5014503;28;20436;-82
2023/03/24 13:09:24;;;;;;;2.43;1.13;;;21.20;54.10;;;;;;5039210;28;20449;-84
2023/03/24 13:12:14;;;;;;;2.50;1.03;;;20.90;54.00;;;;;;5048442;28;20540;-80
2023/03/24 13:15:13;;;;;;;2.43;1.03;;;20.90;53.30;;;;;;5044734;28;20451;-82
2023/03/24 13:17:42;;;;;;;3.23;0.90;;;20.90;53.50;;;;;;5038233;28;20494;-82
2023/03/24 13:20:26;;;;;;;2.97;1.60;;;20.50;54.10;;;;;;5038902;28;20480;-83
2023/03/24 13:22:55;;;;;;;4.07;1.20;;;20.30;53.70;;;;;;5039904;28;20459;-81